Time;durP1;ratioP1;P1;durP2;ratioP2;P2;SDS_P1;SDS_P2;PMS_P1;PMS_P2;Temp;Humidity;BMP_temperature;BMP_pressure;BME280_temperature;BME280_humidity;BME280_pressure;Samples;Min_cycle;Max_cycle;Signal;HPM_P1;HPM_P2
2021/11/07 00:04:38;;;;;;;7.32;6.43;;;10.60;99.90;;;;;;5067794;28;20033;-44
2021/11/07 00:12:31;;;;;;;8.10;7.30;;;10.60;99.90;;;;;;5035497;28;20454;-43
2021/11/07 00:14:57;;;;;;;8.32;7.38;;;10.60;99.90;;;;;;5067246;28;20035;-42
2021/11/07 00:17:27;;;;;;;8.48;7.68;;;10.50;99.90;;;;;;5058191;28;20097;-43
2021/11/07 00:20:02;;;;;;;7.10;6.50;;;10.50;99.90;;;;;;5068030;28;20101;-42
2021/11/07 00:25:14;;;;;;;9.15;6.85;;;10.50;99.90;;;;;;5067323;28;20036;-42
2021/11/07 00:27:47;;;;;;;7.90;7.10;;;10.50;99.90;;;;;;5046841;28;20059;-44
2021/11/07 00:35:57;;;;;;;7.20;6.50;;;10.50;99.90;;;;;;5019038;28;20033;-43
2021/11/07 00:38:38;;;;;;;7.68;6.90;;;10.50;99.90;;;;;;5056794;28;20492;-43
2021/11/07 00:41:26;;;;;;;7.25;6.65;;;10.50;99.90;;;;;;5053008;28;20028;-43
2021/11/07 00:43:59;;;;;;;7.90;7.20;;;10.50;99.90;;;;;;5054683;28;20025;-44
2021/11/07 00:46:35;;;;;;;7.93;7.22;;;10.50;99.90;;;;;;5053500;28;20487;-43
2021/11/07 00:49:07;;;;;;;8.98;7.88;;;10.50;99.90;;;;;;5054246;28;20037;-43
2021/11/07 00:52:02;;;;;;;8.77;7.88;;;10.50;99.90;;;;;;5054036;28;20042;-43
2021/11/07 00:57:15;;;;;;;10.38;8.82;;;10.60;99.90;;;;;;5052827;28;20049;-43
2021/11/07 00:59:58;;;;;;;7.93;7.22;;;10.60;99.90;;;;;;5064760;28;20024;-45
2021/11/07 01:02:31;;;;;;;8.07;7.15;;;10.60;99.90;;;;;;5059663;28;20471;-42
2021/11/07 01:04:59;;;;;;;7.55;6.85;;;10.60;99.90;;;;;;5066052;28;20762;-44
2021/11/07 01:07:26;;;;;;;7.55;6.85;;;10.60;99.90;;;;;;5059705;28;20029;-44
2021/11/07 01:09:53;;;;;;;7.90;7.20;;;10.60;99.90;;;;;;5063843;28;20024;-43
2021/11/07 01:12:21;;;;;;;8.68;7.97;;;10.60;99.90;;;;;;5062906;28;20100;-43
2021/11/07 01:14:48;;;;;;;9.32;8.43;;;10.60;99.90;;;;;;5061294;28;20649;-43
2021/11/07 01:17:13;;;;;;;8.45;7.68;;;10.60;99.90;;;;;;5064978;28;20039;-44
2021/11/07 01:19:39;;;;;;;8.90;8.05;;;10.70;99.90;;;;;;5059121;28;20025;-44
2021/11/07 01:22:08;;;;;;;9.02;8.30;;;10.70;99.90;;;;;;5066613;28;20522;-43
2021/11/07 01:24:36;;;;;;;9.18;8.38;;;10.70;99.90;;;;;;5046185;28;20027;-43
2021/11/07 01:27:39;;;;;;;8.70;7.95;;;10.70;99.90;;;;;;5066613;28;20036;-43
2021/11/07 01:29:57;;;;;;;8.30;7.50;;;10.70;99.90;;;;;;5047455;28;20166;-43
2021/11/07 01:32:24;;;;;;;9.88;8.98;;;10.80;99.90;;;;;;5059297;28;20051;-43
2021/11/07 01:37:20;;;;;;;9.65;8.75;;;10.80;99.90;;;;;;5066854;28;20025;-43
2021/11/07 01:42:18;;;;;;;11.20;10.10;;;10.80;99.90;;;;;;5067771;28;20478;-43
2021/11/07 01:45:00;;;;;;;10.23;9.25;;;10.80;99.90;;;;;;5055190;28;20025;-43
2021/11/07 01:47:26;;;;;;;11.23;9.98;;;10.80;99.90;;;;;;5067472;28;20021;-43
2021/11/07 01:49:56;;;;;;;12.05;10.82;;;10.80;99.90;;;;;;5054711;28;20020;-43
2021/11/07 01:52:25;;;;;;;12.00;10.50;;;10.90;99.90;;;;;;5068385;28;20024;-43
2021/11/07 01:54:58;;;;;;;11.73;10.63;;;10.90;99.90;;;;;;5054704;28;20024;-43
2021/11/07 01:57:29;;;;;;;12.50;11.20;;;10.90;99.90;;;;;;5067000;28;20068;-43
2021/11/07 02:00:04;;;;;;;13.43;12.13;;;10.90;99.90;;;;;;5054888;28;20033;-42
2021/11/07 02:02:34;;;;;;;11.82;10.63;;;10.90;99.90;;;;;;5067695;28;20471;-42
2021/11/07 02:05:00;;;;;;;13.15;11.90;;;10.90;99.90;;;;;;5054522;28;20029;-43
2021/11/07 02:07:26;;;;;;;12.25;11.05;;;10.90;99.90;;;;;;5067826;28;20017;-43
2021/11/07 02:09:51;;;;;;;15.75;12.85;;;10.90;99.90;;;;;;5055630;28;20028;-43
2021/11/07 02:12:18;;;;;;;14.02;12.63;;;10.90;99.90;;;;;;5065984;28;20028;-42
2021/11/07 02:14:46;;;;;;;13.80;12.40;;;10.90;99.90;;;;;;5057678;28;20052;-43
2021/11/07 02:17:13;;;;;;;13.93;12.52;;;10.90;99.90;;;;;;5063200;28;20495;-43
2021/11/07 02:19:46;;;;;;;13.25;11.85;;;10.90;99.90;;;;;;5060552;28;20099;-43
2021/11/07 02:22:13;;;;;;;13.15;11.48;;;10.90;99.90;;;;;;5062492;28;20024;-43
2021/11/07 02:24:40;;;;;;;16.20;14.02;;;10.90;99.90;;;;;;5061180;28;20369;-43
2021/11/07 02:27:06;;;;;;;17.85;15.00;;;10.90;99.90;;;;;;5060169;28;20024;-42
2021/11/07 02:29:33;;;;;;;15.13;13.52;;;10.90;99.90;;;;;;5064202;28;20020;-43
2021/11/07 02:31:59;;;;;;;16.50;14.52;;;11.00;99.90;;;;;;5048303;28;20050;-43
2021/11/07 02:34:29;;;;;;;15.00;13.35;;;11.00;99.90;;;;;;5050154;28;20095;-43
2021/11/07 02:36:55;;;;;;;14.32;12.93;;;11.00;99.90;;;;;;5055431;28;20040;-44
2021/11/07 02:39:21;;;;;;;16.63;15.00;;;11.00;99.90;;;;;;5065208;28;20037;-43
2021/11/07 02:41:50;;;;;;;13.85;12.40;;;11.00;99.90;;;;;;5055825;28;20190;-43
2021/11/07 02:44:30;;;;;;;16.60;15.00;;;11.00;99.90;;;;;;5066406;28;20020;-43
2021/11/07 02:46:56;;;;;;;15.68;14.00;;;11.00;99.90;;;;;;5053903;28;20021;-44
2021/11/07 02:49:23;;;;;;;16.05;14.35;;;11.00;99.90;;;;;;5047147;28;20036;-42
2021/11/07 02:51:55;;;;;;;15.90;14.10;;;11.10;99.90;;;;;;5058653;28;20029;-43
2021/11/07 02:54:21;;;;;;;;;;;11.10;99.90;;;;;;5047541;28;20044;-44
2021/11/07 02:56:49;;;;;;;13.90;12.32;;;11.10;99.90;;;;;;5058425;28;19920;-43
2021/11/07 02:59:21;;;;;;;14.27;12.77;;;11.10;99.90;;;;;;5046094;28;20556;-43
2021/11/07 03:01:47;;;;;;;16.00;13.05;;;11.10;99.90;;;;;;5058791;28;20111;-43
2021/11/07 03:04:13;;;;;;;16.25;14.15;;;11.20;99.90;;;;;;5047011;28;20122;-43
2021/11/07 03:06:39;;;;;;;16.85;14.50;;;11.20;99.90;;;;;;5055905;28;20055;-43
2021/11/07 03:09:06;;;;;;;18.58;15.25;;;11.20;99.90;;;;;;5048561;28;20071;-44
2021/11/07 03:11:39;;;;;;;17.75;15.10;;;11.20;99.90;;;;;;5053743;28;20103;-43
2021/11/07 03:14:06;;;;;;;20.13;16.27;;;11.20;99.90;;;;;;5049446;28;20029;-43
2021/11/07 03:16:32;;;;;;;16.88;14.88;;;11.20;99.90;;;;;;5052767;28;20027;-43
2021/11/07 03:18:57;;;;;;;18.60;15.25;;;11.30;99.90;;;;;;5052292;28;20029;-44
2021/11/07 03:21:23;;;;;;;19.02;15.02;;;11.30;99.90;;;;;;5049412;28;20558;-43
2021/11/07 03:23:50;;;;;;;18.23;15.68;;;11.30;99.90;;;;;;5054931;28;20032;-43
2021/11/07 03:26:23;;;;;;;16.52;13.75;;;11.30;99.90;;;;;;5047459;28;20376;-43
2021/11/07 03:28:50;;;;;;;15.73;13.93;;;11.30;99.90;;;;;;5045502;28;20384;-44
2021/11/07 03:31:41;;;;;;;18.45;13.82;;;11.30;99.90;;;;;;5062468;28;20460;-43
2021/11/07 03:34:13;;;;;;;17.05;13.77;;;11.40;99.90;;;;;;5046940;28;20232;-44
2021/11/07 03:36:50;;;;;;;15.95;13.00;;;11.40;99.90;;;;;;5064653;28;20061;-44
2021/11/07 03:39:17;;;;;;;15.23;13.65;;;11.40;99.90;;;;;;5057140;28;20043;-43
2021/11/07 03:41:43;;;;;;;14.25;12.77;;;11.40;99.90;;;;;;5063679;28;20094;-43
2021/11/07 03:44:12;;;;;;;16.15;13.18;;;11.40;99.90;;;;;;5055028;28;20502;-42
2021/11/07 03:46:38;;;;;;;13.82;12.10;;;11.40;99.90;;;;;;5064129;28;20043;-42
2021/11/07 03:49:11;;;;;;;17.15;13.27;;;11.50;99.90;;;;;;5054392;28;20463;-42
2021/11/07 03:51:38;;;;;;;15.88;13.27;;;11.50;99.90;;;;;;5065450;28;20031;-43
2021/11/07 03:54:08;;;;;;;17.98;12.85;;;11.50;99.90;;;;;;5054292;28;20120;-43
2021/11/07 03:56:34;;;;;;;20.75;14.55;;;11.50;99.90;;;;;;5056659;28;20131;-43
2021/11/07 03:59:04;;;;;;;21.33;14.60;;;11.50;99.90;;;;;;5057749;28;20112;-44
2021/11/07 04:01:29;;;;;;;20.50;12.35;;;11.50;99.90;;;;;;5046554;28;20140;-43
2021/11/07 04:03:55;;;;;;;15.35;8.38;;;11.50;99.90;;;;;;5057512;28;20116;-42
2021/11/07 04:06:21;;;;;;;14.60;7.70;;;11.50;99.90;;;;;;5046536;28;20029;-43
2021/11/07 04:08:47;;;;;;;13.15;6.40;;;11.50;99.90;;;;;;5056223;28;20238;-43
2021/11/07 04:11:14;;;;;;;12.85;6.72;;;11.40;99.90;;;;;;5046708;28;20576;-43
2021/11/07 04:13:39;;;;;;;13.88;5.57;;;11.30;99.90;;;;;;5053528;28;20120;-43
2021/11/07 04:16:07;;;;;;;13.65;4.95;;;11.30;99.90;;;;;;5050395;28;20116;-43
2021/11/07 04:18:34;;;;;;;11.10;4.78;;;11.30;99.90;;;;;;5051127;28;20029;-44
2021/11/07 04:20:59;;;;;;;11.90;4.75;;;11.30;99.90;;;;;;5052067;28;20021;-44
2021/11/07 04:23:25;;;;;;;10.75;4.05;;;11.30;99.90;;;;;;5048383;28;20024;-43
2021/11/07 04:25:50;;;;;;;11.60;4.30;;;11.30;99.90;;;;;;5054745;28;20021;-43
2021/11/07 04:28:16;;;;;;;11.85;3.88;;;11.20;99.90;;;;;;5047028;28;20032;-42
2021/11/07 04:30:42;;;;;;;8.23;3.33;;;11.20;99.90;;;;;;5056246;28;20035;-42
2021/11/07 04:33:07;;;;;;;9.05;3.25;;;11.20;99.90;;;;;;5046869;28;20078;-43
2021/11/07 04:35:33;;;;;;;10.13;2.90;;;11.20;99.90;;;;;;5056926;28;20142;-43
2021/11/07 04:37:59;;;;;;;13.88;3.75;;;11.10;99.90;;;;;;5045355;28;20115;-43
2021/11/07 04:40:27;;;;;;;8.93;3.08;;;11.10;99.90;;;;;;5061223;28;20499;-43
2021/11/07 04:42:54;;;;;;;10.30;3.10;;;11.10;99.90;;;;;;5049347;28;20037;-42
2021/11/07 04:45:20;;;;;;;16.08;3.85;;;11.10;99.90;;;;;;5061021;28;20032;-43
2021/11/07 04:47:47;;;;;;;12.30;3.25;;;11.00;99.90;;;;;;5049067;28;20029;-43
2021/11/07 04:50:16;;;;;;;12.40;3.20;;;11.00;99.90;;;;;;5059921;28;20104;-43
2021/11/07 04:52:45;;;;;;;10.93;3.08;;;11.00;99.90;;;;;;5049116;28;20366;-43
2021/11/07 04:55:17;;;;;;;14.32;4.25;;;11.00;99.90;;;;;;5058446;28;20031;-42
2021/11/07 04:57:43;;;;;;;15.05;3.00;;;11.00;99.90;;;;;;5050237;28;20056;-43
2021/11/07 05:00:15;;;;;;;12.25;3.25;;;11.00;99.90;;;;;;5055799;28;20151;-42
2021/11/07 05:02:45;;;;;;;;;;;11.00;99.90;;;;;;5053309;28;20029;-43
2021/11/07 05:05:11;;;;;;;15.10;3.10;;;11.00;99.90;;;;;;5055130;28;19904;-43
2021/11/07 05:07:38;;;;;;;13.02;3.58;;;11.00;99.90;;;;;;5053420;28;20045;-43
2021/11/07 05:10:09;;;;;;;11.98;3.33;;;11.00;99.90;;;;;;5052557;28;20024;-43
2021/11/07 05:12:35;;;;;;;11.83;3.40;;;11.00;99.90;;;;;;5055672;28;20029;-44
2021/11/07 05:15:02;;;;;;;14.27;3.17;;;11.00;99.90;;;;;;5050767;28;20017;-44
2021/11/07 05:17:28;;;;;;;16.02;3.70;;;11.00;99.90;;;;;;5059237;28;20021;-44
2021/11/07 05:19:53;;;;;;;15.63;4.05;;;11.00;99.90;;;;;;5049075;28;20495;-43
2021/11/07 05:22:19;;;;;;;11.48;3.15;;;11.00;99.90;;;;;;5058971;28;20049;-43
2021/11/07 05:24:45;;;;;;;19.80;4.70;;;11.00;99.90;;;;;;5049227;28;20021;-44
2021/11/07 05:27:10;;;;;;;9.93;2.75;;;11.00;99.90;;;;;;5059694;28;20036;-44
2021/11/07 05:29:36;;;;;;;14.48;3.80;;;11.00;99.90;;;;;;5048182;28;20041;-43
2021/11/07 05:32:01;;;;;;;9.50;3.45;;;11.00;99.90;;;;;;5054673;28;20701;-44
2021/11/07 05:34:28;;;;;;;8.45;3.00;;;11.00;99.90;;;;;;5047568;28;20396;-42
2021/11/07 05:36:54;;;;;;;8.63;2.75;;;11.00;99.90;;;;;;5060162;28;20071;-43
2021/11/07 05:39:20;;;;;;;13.32;3.20;;;11.00;99.90;;;;;;5048637;28;20435;-41
2021/11/07 05:41:47;;;;;;;13.77;3.20;;;11.00;99.90;;;;;;5056802;28;20016;-43
2021/11/07 05:44:13;;;;;;;11.38;2.92;;;10.90;99.90;;;;;;5050996;28;20029;-43
2021/11/07 05:46:38;;;;;;;8.35;2.53;;;10.90;99.90;;;;;;5055067;28;20373;-44
2021/11/07 05:49:04;;;;;;;9.93;2.80;;;10.90;99.90;;;;;;5052536;28;20055;-43
2021/11/07 05:51:30;;;;;;;7.70;2.40;;;10.90;99.90;;;;;;5051614;28;20108;-44
2021/11/07 05:53:56;;;;;;;12.48;2.97;;;10.90;99.90;;;;;;5056162;28;20079;-44
2021/11/07 05:56:22;;;;;;;11.73;2.90;;;10.80;99.90;;;;;;5051860;28;20589;-44
2021/11/07 05:58:48;;;;;;;12.32;2.97;;;10.80;99.90;;;;;;5057350;28;20056;-43
2021/11/07 06:01:13;;;;;;;8.90;2.78;;;10.80;99.90;;;;;;5066411;28;20056;-43
2021/11/07 06:03:39;;;;;;;11.10;2.50;;;10.70;99.90;;;;;;5055746;28;20119;-44
2021/11/07 06:06:05;;;;;;;13.88;2.83;;;10.70;99.90;;;;;;5066784;28;20079;-44
2021/11/07 06:08:30;;;;;;;11.48;2.83;;;10.70;99.90;;;;;;5055746;28;20017;-43
2021/11/07 06:10:58;;;;;;;10.07;2.70;;;10.70;99.90;;;;;;5067227;28;20021;-43
2021/11/07 06:13:24;;;;;;;11.20;2.47;;;10.70;99.90;;;;;;5054154;28;20033;-44
2021/11/07 06:15:50;;;;;;;8.93;2.33;;;10.60;99.90;;;;;;5067207;28;20578;-43
2021/11/07 06:18:15;;;;;;;9.50;2.55;;;10.60;99.90;;;;;;5055101;28;20021;-43
2021/11/07 06:20:44;;;;;;;9.05;2.50;;;10.50;99.90;;;;;;5066538;28;20025;-43
2021/11/07 06:23:11;;;;;;;13.02;2.78;;;10.40;99.90;;;;;;5057017;28;20538;-44
2021/11/07 06:25:38;;;;;;;11.77;2.35;;;10.30;99.90;;;;;;5064705;28;20044;-43
2021/11/07 06:28:05;;;;;;;10.23;2.53;;;10.30;99.90;;;;;;5059988;28;20029;-43
2021/11/07 06:30:31;;;;;;;7.72;2.13;;;10.20;99.90;;;;;;5062051;28;20023;-42
2021/11/07 06:32:57;;;;;;;9.05;2.63;;;10.20;99.90;;;;;;5056384;28;20047;-43
2021/11/07 06:35:22;;;;;;;8.65;2.22;;;10.10;99.90;;;;;;5054472;28;20481;-43
2021/11/07 06:37:48;;;;;;;8.57;2.83;;;10.00;99.90;;;;;;5048958;28;20021;-44
2021/11/07 06:40:15;;;;;;;7.95;2.25;;;10.00;99.90;;;;;;5056421;28;20499;-43
2021/11/07 06:42:43;;;;;;;16.25;2.97;;;9.90;99.90;;;;;;5048229;28;20008;-44
2021/11/07 06:45:11;;;;;;;10.88;2.53;;;9.90;99.90;;;;;;5057972;28;20029;-44
2021/11/07 06:47:42;;;;;;;10.10;2.70;;;9.90;99.90;;;;;;5047939;28;20028;-43
2021/11/07 06:50:10;;;;;;;8.43;2.42;;;9.80;99.90;;;;;;5057970;28;20033;-45
2021/11/07 06:52:36;;;;;;;8.07;1.73;;;9.80;99.90;;;;;;5046792;28;20021;-42
2021/11/07 06:55:04;;;;;;;8.27;1.83;;;9.80;99.90;;;;;;5058587;28;20048;-43
2021/11/07 06:57:29;;;;;;;10.98;2.65;;;9.70;99.90;;;;;;5046987;28;20045;-42
2021/11/07 06:59:55;;;;;;;9.57;2.50;;;9.60;99.90;;;;;;5058239;28;20081;-42
2021/11/07 07:02:20;;;;;;;6.50;2.00;;;9.60;99.90;;;;;;5046336;28;20029;-43
2021/11/07 07:04:47;;;;;;;8.27;2.15;;;9.60;99.90;;;;;;5058143;28;20031;-43
2021/11/07 07:07:14;;;;;;;10.95;2.25;;;9.60;99.90;;;;;;5046707;28;20029;-44
2021/11/07 07:09:45;;;;;;;14.65;3.63;;;9.50;99.90;;;;;;5055413;28;20115;-45
2021/11/07 07:14:48;;;;;;;11.25;2.65;;;9.50;99.90;;;;;;5053932;28;20040;-44
2021/11/07 07:20:12;;;;;;;10.98;3.78;;;9.50;99.90;;;;;;5054215;28;20036;-43
2021/11/07 07:35:50;;;;;;;11.18;2.55;;;9.70;99.90;;;;;;5057897;28;20032;-44
2021/11/07 07:38:16;;;;;;;11.45;3.05;;;9.70;99.90;;;;;;5046808;28;20093;-42
2021/11/07 07:40:42;;;;;;;11.95;3.00;;;9.70;99.90;;;;;;5054461;28;20048;-44
2021/11/07 07:43:07;;;;;;;6.40;2.13;;;9.70;99.90;;;;;;5049991;28;20040;-44
2021/11/07 07:45:33;;;;;;;8.18;2.22;;;9.70;99.90;;;;;;5049685;28;20016;-43
2021/11/07 07:48:00;;;;;;;8.55;1.90;;;9.60;99.90;;;;;;5059930;28;20035;-44
2021/11/07 07:50:26;;;;;;;9.50;2.95;;;9.60;99.90;;;;;;5061409;28;20021;-44
2021/11/07 07:52:53;;;;;;;9.43;2.33;;;9.60;99.90;;;;;;5057251;28;20531;-43
2021/11/07 07:55:19;;;;;;;8.52;2.22;;;9.60;99.90;;;;;;5060737;28;20024;-43
2021/11/07 07:57:45;;;;;;;5.38;1.80;;;9.60;99.90;;;;;;5053663;28;20048;-42
2021/11/07 08:00:15;;;;;;;9.57;2.10;;;9.60;99.90;;;;;;5063734;28;20113;-43
2021/11/07 08:02:41;;;;;;;11.60;2.60;;;9.60;99.90;;;;;;5053086;28;20449;-43
2021/11/07 08:05:10;;;;;;;12.60;3.38;;;9.70;99.90;;;;;;5064423;28;20048;-43
2021/11/07 08:07:35;;;;;;;13.30;3.20;;;9.70;99.90;;;;;;5053104;28;20028;-44
2021/11/07 08:10:03;;;;;;;13.15;2.97;;;9.70;99.90;;;;;;5044427;28;20029;-44
2021/11/07 08:12:29;;;;;;;14.90;3.22;;;9.80;99.90;;;;;;5057467;28;20104;-44
2021/11/07 08:14:54;;;;;;;10.82;3.20;;;9.90;99.90;;;;;;5048258;28;20124;-43
2021/11/07 08:17:20;;;;;;;11.57;3.15;;;10.00;99.90;;;;;;5060762;28;20016;-43
2021/11/07 08:19:46;;;;;;;9.27;2.53;;;10.20;99.90;;;;;;5049180;28;20024;-44
2021/11/07 08:22:12;;;;;;;11.35;3.60;;;10.40;99.90;;;;;;5059499;28;20024;-43
2021/11/07 08:24:38;;;;;;;12.38;2.90;;;10.50;99.90;;;;;;5050570;28;20032;-44
2021/11/07 08:27:05;;;;;;;10.32;2.75;;;10.60;99.90;;;;;;5056166;28;20099;-44
2021/11/07 08:29:31;;;;;;;13.60;2.78;;;10.60;99.90;;;;;;5052934;28;20541;-43
2021/11/07 08:31:58;;;;;;;12.48;2.55;;;10.70;99.90;;;;;;5049670;28;20047;-42
2021/11/07 08:34:27;;;;;;;12.52;2.38;;;10.60;99.90;;;;;;5061812;28;20129;-43
2021/11/07 08:39:38;;;;;;;15.52;2.47;;;10.60;99.90;;;;;;5060349;28;20033;-43
2021/11/07 08:42:13;;;;;;;10.13;2.67;;;10.50;99.90;;;;;;5065199;28;20043;-44
2021/11/07 09:04:24;;;;;;;11.00;2.80;;;10.30;99.90;;;;;;5058843;28;20515;-43
2021/11/07 09:07:16;;;;;;;8.70;2.20;;;10.40;99.90;;;;;;5047786;28;20067;-43
2021/11/07 09:09:43;;;;;;;11.17;2.43;;;10.40;99.90;;;;;;5055779;28;20767;-42
2021/11/07 09:12:09;;;;;;;13.13;2.60;;;10.50;99.90;;;;;;5048672;28;20029;-42
2021/11/07 09:14:38;;;;;;;11.77;2.30;;;10.60;99.90;;;;;;5060647;28;20025;-33
2021/11/07 09:17:07;;;;;;;13.40;2.58;;;10.80;99.90;;;;;;5048228;28;20419;-33
2021/11/07 09:19:35;;;;;;;10.43;2.67;;;10.90;99.90;;;;;;5052758;28;20033;-33
2021/11/07 09:22:14;;;;;;;12.93;2.67;;;11.10;99.90;;;;;;5068795;28;20020;-33
2021/11/07 09:25:02;;;;;;;11.43;2.83;;;11.30;99.90;;;;;;5062087;28;20029;-33
2021/11/07 09:27:42;;;;;;;13.13;2.47;;;11.40;99.90;;;;;;5047108;28;20533;-33
2021/11/07 09:30:16;;;;;;;10.85;2.83;;;11.50;99.90;;;;;;5055083;28;20704;-33
2021/11/07 09:32:52;;;;;;;11.85;2.70;;;11.60;99.90;;;;;;5054116;28;20032;-33
2021/11/07 09:35:34;;;;;;;16.40;3.28;;;11.50;99.90;;;;;;5054573;28;20073;-33
2021/11/07 09:38:05;;;;;;;10.77;2.72;;;11.50;99.90;;;;;;5065596;28;20079;-33
2021/11/07 09:40:33;;;;;;;11.48;3.70;;;11.50;99.90;;;;;;5049842;28;20543;-44
2021/11/07 09:43:18;;;;;;;9.93;2.50;;;11.40;99.90;;;;;;5047181;28;20033;-43
2021/11/07 09:45:54;;;;;;;13.00;2.95;;;11.40;99.90;;;;;;5053693;28;20020;-43
2021/11/07 09:48:29;;;;;;;12.88;2.60;;;11.40;99.90;;;;;;5065319;28;20031;-44
2021/11/07 09:50:56;;;;;;;15.55;2.85;;;11.50;99.90;;;;;;5053708;28;20108;-44
2021/11/07 09:53:22;;;;;;;12.57;2.38;;;11.60;99.90;;;;;;5066246;28;20032;-43
2021/11/07 09:55:49;;;;;;;11.82;2.75;;;11.80;99.90;;;;;;5054032;28;20092;-44
2021/11/07 09:58:16;;;;;;;9.35;2.47;;;11.90;99.90;;;;;;5067317;28;20124;-44
2021/11/07 10:00:48;;;;;;;15.27;3.10;;;11.90;99.90;;;;;;5054695;28;20481;-42
2021/11/07 10:03:17;;;;;;;17.15;2.80;;;12.00;99.90;;;;;;5026456;28;20108;-45
2021/11/07 10:05:48;;;;;;;13.85;3.30;;;11.90;99.90;;;;;;5051895;28;20056;-44
2021/11/07 10:08:15;;;;;;;10.15;2.80;;;11.90;99.90;;;;;;5047388;28;20457;-43
2021/11/07 10:11:01;;;;;;;11.50;2.67;;;11.80;99.90;;;;;;5054935;28;20063;-44
2021/11/07 10:13:28;;;;;;;11.85;2.20;;;11.70;99.90;;;;;;5046073;28;20045;-43
2021/11/07 10:16:09;;;;;;;10.75;2.83;;;11.70;99.90;;;;;;5053940;28;20055;-42
2021/11/07 10:18:44;;;;;;;12.30;2.40;;;11.80;99.90;;;;;;5064910;28;20181;-43
2021/11/07 10:21:34;;;;;;;14.23;3.03;;;12.00;99.90;;;;;;5056254;28;20531;-45
2021/11/07 10:24:10;;;;;;;12.43;2.58;;;12.20;99.90;;;;;;5025933;28;20037;-43
2021/11/07 10:26:39;;;;;;;13.77;3.20;;;12.30;99.90;;;;;;5040644;28;20405;-44
2021/11/07 10:29:10;;;;;;;9.02;2.10;;;12.40;99.90;;;;;;5045568;28;20029;-43
2021/11/07 10:31:50;;;;;;;9.23;2.35;;;12.50;99.90;;;;;;5049283;28;20044;-43
2021/11/07 10:52:37;;;;;;;15.27;2.88;;;12.70;99.90;;;;;;5046296;28;20044;-44
2021/11/07 10:55:15;;;;;;;12.73;2.92;;;12.70;99.90;;;;;;5043689;28;20178;-43
2021/11/07 10:58:10;;;;;;;8.10;2.42;;;12.80;99.90;;;;;;5052689;28;20029;-42
2021/11/07 11:00:39;;;;;;;10.35;2.40;;;12.90;99.90;;;;;;5025974;28;20098;-44
2021/11/07 11:03:18;;;;;;;9.45;2.75;;;12.90;99.90;;;;;;5053449;28;20476;-43
2021/11/07 11:05:58;;;;;;;14.02;3.05;;;12.90;99.90;;;;;;5045357;28;20639;-43
2021/11/07 11:08:35;;;;;;;9.88;2.65;;;12.80;99.90;;;;;;5050119;28;20070;-42
2021/11/07 11:11:58;;;;;;;12.32;2.50;;;12.60;99.90;;;;;;5031271;28;20017;-43
2021/11/07 11:14:08;;;;;;;9.75;2.75;;;12.50;99.90;;;;;;5040092;28;20049;-42
2021/11/07 11:20:01;;;;;;;10.57;2.78;;;12.30;99.90;;;;;;5045088;28;20062;-44
2021/11/07 11:37:50;;;;;;;11.20;2.28;;;12.90;99.90;;;;;;5046000;28;20560;-43
2021/11/07 11:42:57;;;;;;;15.10;3.03;;;13.10;99.70;;;;;;5046991;28;20403;-45
2021/11/07 11:45:30;;;;;;;12.48;2.60;;;13.10;99.90;;;;;;5045394;28;20032;-43
2021/11/07 11:48:45;;;;;;;8.20;2.45;;;13.10;99.90;;;;;;5047649;28;20032;-43
2021/11/07 12:00:17;;;;;;;11.90;2.40;;;12.80;99.90;;;;;;5048936;28;20041;-43
2021/11/07 12:08:11;;;;;;;6.03;1.60;;;12.20;99.90;;;;;;5047954;28;20033;-43
2021/11/07 12:10:44;;;;;;;8.27;1.90;;;11.90;99.90;;;;;;5052478;28;20090;-43
2021/11/07 12:14:01;;;;;;;7.32;2.00;;;11.70;99.90;;;;;;5048796;28;20025;-43
2021/11/07 12:16:42;;;;;;;7.53;2.50;;;11.50;99.90;;;;;;5044872;28;20036;-42
2021/11/07 12:19:11;;;;;;;7.60;1.75;;;11.40;99.90;;;;;;5051463;28;20029;-43
2021/11/07 12:21:49;;;;;;;8.75;2.00;;;11.20;99.90;;;;;;5058154;28;20035;-44
2021/11/07 12:24:19;;;;;;;10.55;1.98;;;11.10;99.90;;;;;;5067793;28;20047;-44
2021/11/07 12:26:45;;;;;;;9.40;2.50;;;11.10;99.90;;;;;;5047649;28;20038;-43
2021/11/07 12:29:31;;;;;;;9.82;2.75;;;11.10;99.90;;;;;;5067510;28;20017;-44
2021/11/07 12:32:02;;;;;;;11.02;2.55;;;11.10;99.90;;;;;;5039363;28;20536;-43
2021/11/07 12:34:59;;;;;;;9.18;2.10;;;11.00;99.90;;;;;;5051939;28;20071;-43
2021/11/07 12:40:41;;;;;;;11.00;2.47;;;10.90;99.90;;;;;;5062155;28;20043;-44
2021/11/07 12:43:10;;;;;;;14.63;3.05;;;10.90;99.90;;;;;;5063892;28;20060;-42
2021/11/07 12:45:44;;;;;;;15.15;3.13;;;11.00;99.90;;;;;;5060064;28;20051;-43
2021/11/07 12:48:13;;;;;;;12.25;2.47;;;11.00;99.90;;;;;;5063672;28;20268;-44
2021/11/07 12:51:01;;;;;;;9.70;2.42;;;11.00;99.90;;;;;;5061674;28;20425;-45
2021/11/07 12:53:29;;;;;;;9.98;2.10;;;11.00;99.90;;;;;;5063438;28;20036;-43
2021/11/07 12:55:55;;;;;;;12.90;2.70;;;11.10;99.90;;;;;;5061060;28;20028;-43
2021/11/07 12:58:21;;;;;;;11.85;2.50;;;11.10;99.90;;;;;;5061409;28;20033;-43
2021/11/07 13:00:48;;;;;;;11.80;2.60;;;11.10;99.90;;;;;;5061554;28;20657;-43
2021/11/07 13:03:17;;;;;;;17.30;3.75;;;11.10;99.90;;;;;;5060118;28;20017;-44
2021/11/07 13:05:44;;;;;;;16.98;3.22;;;11.20;99.90;;;;;;5063228;28;20028;-42
2021/11/07 13:08:23;;;;;;;14.23;3.10;;;11.20;99.90;;;;;;5055776;28;20032;-43
2021/11/07 13:11:00;;;;;;;15.15;3.67;;;11.30;99.90;;;;;;5065703;28;20016;-45
2021/11/07 13:18:43;;;;;;;11.77;2.60;;;11.70;99.90;;;;;;5043477;28;20033;-44
2021/11/07 13:24:10;;;;;;;12.32;3.05;;;12.00;99.90;;;;;;5046260;28;20033;-45
2021/11/07 13:26:45;;;;;;;9.52;2.75;;;12.00;99.90;;;;;;5048876;28;20051;-43
2021/11/07 13:35:00;;;;;;;11.02;2.65;;;12.10;99.90;;;;;;5044840;28;20088;-43
2021/11/07 13:37:33;;;;;;;15.27;3.38;;;12.30;99.90;;;;;;5052818;28;20365;-43
2021/11/07 13:40:08;;;;;;;17.00;3.70;;;12.30;99.90;;;;;;5047453;28;20527;-44
2021/11/07 13:42:37;;;;;;;15.95;3.40;;;12.20;99.90;;;;;;5053628;28;20032;-43
2021/11/07 13:45:05;;;;;;;13.88;3.20;;;12.20;99.90;;;;;;5057895;28;20036;-43
2021/11/07 13:47:33;;;;;;;11.90;3.30;;;12.20;99.90;;;;;;5051020;28;20028;-43
2021/11/07 13:50:05;;;;;;;15.73;3.67;;;12.10;99.90;;;;;;5046741;28;20033;-44
2021/11/07 13:52:35;;;;;;;14.90;3.83;;;12.10;99.90;;;;;;5050399;28;20416;-44
2021/11/07 13:55:02;;;;;;;20.20;3.38;;;12.10;99.90;;;;;;5046436;28;20055;-42
2021/11/07 13:57:30;;;;;;;13.75;2.95;;;12.00;99.90;;;;;;5046188;28;20045;-42
2021/11/07 13:59:57;;;;;;;13.20;2.78;;;12.00;99.90;;;;;;5052464;28;20115;-43
2021/11/07 14:02:25;;;;;;;15.30;3.75;;;12.10;99.90;;;;;;5047944;28;20017;-44
2021/11/07 14:04:53;;;;;;;17.05;3.75;;;12.10;99.90;;;;;;5051573;28;20028;-44
2021/11/07 14:07:32;;;;;;;10.55;2.72;;;12.10;99.90;;;;;;5045130;28;20016;-44
2021/11/07 14:10:11;;;;;;;12.38;2.45;;;11.90;99.90;;;;;;5049557;28;20041;-43
2021/11/07 14:12:44;;;;;;;9.02;2.00;;;11.40;99.90;;;;;;5046847;28;20033;-43
2021/11/07 14:15:09;;;;;;;;;;;10.90;99.90;;;;;;5046516;28;20025;-43
2021/11/07 14:17:36;;;;;;;11.07;2.00;;;10.60;99.90;;;;;;5046585;28;19917;-44
2021/11/07 14:20:04;;;;;;;12.55;2.80;;;10.30;99.90;;;;;;5050063;28;20032;-44
2021/11/07 14:22:30;;;;;;;13.63;2.63;;;10.20;99.90;;;;;;5055153;28;20078;-45
2021/11/07 14:25:25;;;;;;;9.10;2.40;;;10.10;99.90;;;;;;5058531;28;20023;-43
2021/11/07 14:27:57;;;;;;;18.55;4.78;;;10.10;99.90;;;;;;5030728;28;20132;-44
2021/11/07 14:30:35;;;;;;;15.63;4.00;;;10.10;99.90;;;;;;5039207;28;20213;-43
2021/11/07 14:33:09;;;;;;;14.00;3.95;;;10.10;99.90;;;;;;5043791;28;20029;-43
2021/11/07 14:35:35;;;;;;;17.02;3.05;;;10.10;99.90;;;;;;5046158;28;20025;-44
2021/11/07 14:38:10;;;;;;;15.15;3.40;;;10.10;99.90;;;;;;5046125;28;20025;-44
2021/11/07 14:46:05;;;;;;;21.95;3.38;;;10.10;99.90;;;;;;5050140;28;20032;-43
2021/11/07 14:54:31;;;;;;;;;;;10.10;99.90;;;;;;5046810;28;20037;-44
2021/11/07 15:02:41;;;;;;;15.52;2.75;;;10.00;99.90;;;;;;5047062;28;20060;-43
2021/11/07 15:05:42;;;;;;;12.82;2.95;;;10.00;99.90;;;;;;5048393;28;20036;-44
2021/11/07 15:08:27;;;;;;;11.93;3.53;;;9.90;99.90;;;;;;5053123;28;20082;-44
2021/11/07 15:17:09;;;;;;;11.45;2.42;;;9.90;99.90;;;;;;5046183;28;20507;-43
2021/11/07 15:19:43;;;;;;;11.65;2.42;;;9.90;99.90;;;;;;5042034;28;20803;-43
2021/11/07 15:22:21;;;;;;;11.60;2.30;;;9.90;99.90;;;;;;5046128;28;20469;-43
2021/11/07 15:24:47;;;;;;;11.63;2.08;;;9.90;99.90;;;;;;5044831;28;20039;-44
2021/11/07 15:27:22;;;;;;;11.43;2.55;;;9.80;99.90;;;;;;5048477;28;20060;-43
2021/11/07 15:29:59;;;;;;;9.90;2.53;;;9.80;99.90;;;;;;5045753;28;20025;-44
2021/11/07 15:32:37;;;;;;;10.13;3.35;;;9.70;99.90;;;;;;5051076;28;20021;-45
2021/11/07 15:35:24;;;;;;;11.43;2.38;;;9.70;99.90;;;;;;5045829;28;20135;-43
2021/11/07 15:38:11;;;;;;;13.63;2.65;;;9.70;99.90;;;;;;5043979;28;20052;-44